Time;durP1;ratioP1;P1;durP2;ratioP2;P2;SDS_P1;SDS_P2;PMS_P1;PMS_P2;Temp;Humidity;BMP_temperature;BMP_pressure;BME280_temperature;BME280_humidity;BME280_pressure;Samples;Min_cycle;Max_cycle;Signal;HPM_P1;HPM_P2
2023/08/17 00:03:29;;;;;;;6.70;3.20;;;;;;;20.68;100.00;100507.91;178736;1255;57004;-83
2023/08/17 00:07:33;;;;;;;3.30;3.00;;;;;;;20.69;100.00;100503.75;179021;1255;46055;-83
2023/08/17 00:11:37;;;;;;;3.70;2.10;;;;;;;20.77;100.00;100501.81;179267;1255;45985;-84
2023/08/17 00:15:41;;;;;;;6.40;3.50;;;;;;;20.80;100.00;100507.77;179113;1255;45959;-84
2023/08/17 00:19:45;;;;;;;3.80;2.90;;;;;;;20.92;100.00;100527.11;178987;1255;46108;-84
2023/08/17 00:23:49;;;;;;;4.20;3.00;;;;;;;21.03;100.00;100528.00;179219;1255;59945;-83
2023/08/17 00:27:52;;;;;;;3.90;2.70;;;;;;;21.11;100.00;100532.09;178912;1257;46133;-83
2023/08/17 00:31:57;;;;;;;3.20;2.80;;;;;;;21.23;100.00;100554.63;179147;1254;46056;-83
2023/08/17 00:36:01;;;;;;;6.90;3.60;;;;;;;21.37;100.00;100574.05;179307;1255;45959;-84
2023/08/17 00:40:05;;;;;;;3.20;2.90;;;;;;;21.47;100.00;100572.13;179502;1256;45822;-84
2023/08/17 00:44:09;;;;;;;4.30;2.90;;;;;;;21.54;100.00;100580.66;179311;1255;57996;-83
2023/08/17 00:48:14;;;;;;;5.60;2.70;;;;;;;21.60;100.00;100581.02;179439;1255;44606;-83
2023/08/17 00:52:18;;;;;;;7.20;4.80;;;;;;;21.68;100.00;100575.58;179049;1255;45897;-83
2023/08/17 00:56:22;;;;;;;5.00;4.30;;;;;;;21.67;100.00;100572.95;179343;1255;45892;-83
2023/08/17 01:00:27;;;;;;;5.50;3.40;;;;;;;21.60;100.00;100582.13;179212;1258;46120;-83
2023/08/17 01:04:32;;;;;;;6.20;4.80;;;;;;;21.44;100.00;100592.03;179258;1255;59925;-83
2023/08/17 01:08:37;;;;;;;5.50;4.00;;;;;;;21.25;100.00;100586.33;179324;1255;46042;-83
2023/08/17 01:12:50;;;;;;;5.30;3.10;;;;;;;21.13;100.00;100582.29;179402;1255;46104;-83
2023/08/17 01:17:03;;;;;;;6.90;3.10;;;;;;;21.07;100.00;100591.12;179213;1255;45793;-83
2023/08/17 01:21:10;;;;;;;3.80;2.30;;;;;;;20.96;100.00;100612.61;179269;1256;44300;-83
2023/08/17 01:25:13;;;;;;;4.30;3.10;;;;;;;20.89;100.00;100637.55;179209;1255;57923;-83
2023/08/17 01:29:17;;;;;;;6.90;4.20;;;;;;;20.75;100.00;100646.18;178895;1255;46000;-83
2023/08/17 01:33:31;;;;;;;4.00;3.10;;;;;;;20.68;100.00;100617.54;178988;1255;45971;-83
2023/08/17 01:37:40;;;;;;;4.10;3.20;;;;;;;20.64;100.00;100603.60;179029;1255;44839;-83
2023/08/17 01:41:47;;;;;;;4.60;3.80;;;;;;;20.65;100.00;100600.95;179193;1255;46097;-83
2023/08/17 01:45:55;;;;;;;5.20;3.80;;;;;;;20.67;100.00;100588.84;178918;1256;59226;-83
2023/08/17 01:49:59;;;;;;;3.20;2.80;;;;;;;20.75;100.00;100572.89;178973;1255;44842;-83
2023/08/17 01:54:03;;;;;;;7.80;4.30;;;;;;;20.84;100.00;100552.52;179129;1256;46016;-83
2023/08/17 01:58:07;;;;;;;5.30;3.70;;;;;;;20.91;100.00;100535.89;179134;1255;44553;-83
2023/08/17 02:02:15;;;;;;;4.30;3.50;;;;;;;20.98;100.00;100530.27;178937;1258;46047;-83
2023/08/17 02:06:18;;;;;;;6.70;3.70;;;;;;;21.00;100.00;100538.23;179110;1256;59388;-83
2023/08/17 02:10:22;;;;;;;6.40;4.40;;;;;;;20.92;100.00;100561.55;178996;1255;46275;-85
2023/08/17 02:14:26;;;;;;;4.40;3.70;;;;;;;20.76;100.00;100583.25;178837;1255;44218;-83
2023/08/17 02:18:31;;;;;;;10.20;5.40;;;;;;;20.51;100.00;100589.30;178917;1255;46005;-83
2023/08/17 02:22:35;;;;;;;5.40;3.90;;;;;;;20.42;100.00;100573.73;179164;1255;46085;-83
2023/08/17 02:26:39;;;;;;;6.50;4.50;;;;;;;20.44;100.00;100569.20;178950;1255;58286;-83
2023/08/17 02:30:43;;;;;;;6.90;4.30;;;;;;;20.50;100.00;100559.89;178747;1255;44771;-83
2023/08/17 02:34:47;;;;;;;4.80;3.80;;;;;;;20.59;100.00;100546.11;178866;1255;44725;-82
2023/08/17 02:38:51;;;;;;;7.70;5.60;;;;;;;20.68;100.00;100508.81;179065;1255;45995;-81
2023/08/17 02:42:54;;;;;;;8.00;5.90;;;;;;;20.74;100.00;100489.42;179275;1260;45988;-81
2023/08/17 02:46:58;;;;;;;4.50;4.00;;;;;;;20.74;100.00;100457.23;179378;1255;65829;-81
2023/08/17 02:51:02;;;;;;;10.70;4.70;;;;;;;20.64;100.00;100436.50;179162;1255;45937;-85
2023/08/17 02:55:06;;;;;;;7.70;5.30;;;;;;;20.57;100.00;100430.88;178962;1256;46020;-88
2023/08/17 02:59:09;;;;;;;6.50;4.90;;;;;;;20.48;100.00;100418.95;179134;1255;46160;-87
2023/08/17 03:03:41;;;;;;;5.60;4.40;;;;;;;20.42;100.00;100417.84;178937;1255;45977;-88
2023/08/17 03:07:45;;;;;;;7.00;4.70;;;;;;;20.43;100.00;100414.32;178971;1256;58273;-87
2023/08/17 03:11:49;;;;;;;4.80;4.30;;;;;;;20.41;100.00;100423.98;178561;1257;46241;-86
2023/08/17 03:15:54;;;;;;;7.50;4.40;;;;;;;20.43;100.00;100435.00;178857;1255;46064;-84
2023/08/17 03:19:59;;;;;;;5.40;4.80;;;;;;;20.46;100.00;100442.91;179153;1255;44830;-84
2023/08/17 03:24:03;;;;;;;7.10;4.10;;;;;;;20.50;100.00;100453.36;179005;1255;45966;-84
2023/08/17 03:28:07;;;;;;;9.40;4.90;;;;;;;20.52;100.00;100475.50;179183;1255;59558;-84
2023/08/17 03:32:11;;;;;;;8.00;5.10;;;;;;;20.47;100.00;100496.95;179033;1255;45989;-83
2023/08/17 03:36:15;;;;;;;5.60;5.10;;;;;;;20.49;100.00;100507.02;178527;1255;46121;-83
2023/08/17 03:40:18;;;;;;;8.40;5.00;;;;;;;20.50;100.00;100514.84;178394;1255;48988;-83
2023/08/17 03:44:22;;;;;;;10.40;5.30;;;;;;;20.57;100.00;100520.50;179043;1255;46160;-83
2023/08/17 03:48:25;;;;;;;10.70;4.50;;;;;;;20.64;100.00;100522.11;179193;1255;58244;-83
2023/08/17 03:52:29;;;;;;;9.10;5.30;;;;;;;20.64;100.00;100531.88;178630;1255;45975;-83
2023/08/17 03:56:33;;;;;;;5.20;3.90;;;;;;;20.56;100.00;100553.04;178604;1260;46090;-83
2023/08/17 04:00:36;;;;;;;6.40;4.70;;;;;;;20.55;100.00;100558.66;178751;1255;46117;-83
2023/08/17 04:04:40;;;;;;;10.90;5.10;;;;;;;20.59;100.00;100557.48;178784;1255;45946;-83
2023/08/17 04:08:44;;;;;;;9.30;4.80;;;;;;;20.67;100.00;100556.12;178890;1255;59650;-83
2023/08/17 04:12:47;;;;;;;4.70;4.30;;;;;;;20.80;100.00;100561.38;178738;1255;46084;-82
2023/08/17 04:16:52;;;;;;;8.30;5.50;;;;;;;20.95;100.00;100569.80;178798;1255;45994;-83
2023/08/17 04:20:55;;;;;;;6.90;5.10;;;;;;;21.11;100.00;100572.71;178945;1255;46078;-83
2023/08/17 04:24:59;;;;;;;5.30;4.80;;;;;;;21.17;100.00;100574.37;178741;1256;44397;-83
2023/08/17 04:29:03;;;;;;;7.70;4.30;;;;;;;21.12;100.00;100571.52;179079;1255;58290;-83
2023/08/17 04:33:07;;;;;;;10.00;5.60;;;;;;;21.12;100.00;100567.89;179210;1258;45959;-82
2023/08/17 04:37:11;;;;;;;5.00;4.50;;;;;;;21.27;100.00;100573.73;180130;1255;45940;-83
2023/08/17 04:41:16;;;;;;;9.10;4.80;;;;;;;21.50;100.00;100579.66;179106;1255;45989;-83
2023/08/17 04:45:20;;;;;;;7.80;5.80;;;;;;;21.71;100.00;100581.70;179314;1255;46137;-83
2023/08/17 04:49:26;;;;;;;13.00;5.10;;;;;;;21.79;100.00;100570.63;179735;1255;58503;-83
2023/08/17 04:53:29;;;;;;;6.40;4.40;;;;;;;21.88;100.00;100566.83;180106;1256;45613;-83
2023/08/17 04:57:33;;;;;;;7.60;4.50;;;;;;;22.36;100.00;100562.70;179620;1255;44189;-82
2023/08/17 05:01:37;;;;;;;7.10;4.40;;;;;;;23.23;100.00;100573.76;180564;1256;46487;-83
2023/08/17 05:05:45;;;;;;;5.50;4.20;;;;;;;23.79;100.00;100578.20;180237;1255;46039;-83
2023/08/17 05:09:50;;;;;;;5.00;4.50;;;;;;;23.73;100.00;100577.90;179820;1255;58309;-83
2023/08/17 05:13:54;;;;;;;;;;;;;;;23.38;100.00;100582.52;179514;1255;45808;-83
2023/08/17 05:17:57;;;;;;;5.40;3.40;;;;;;;23.19;100.00;100588.98;180148;1255;43893;-83
2023/08/17 05:22:01;;;;;;;8.00;3.90;;;;;;;23.33;100.00;100602.92;179454;1255;46005;-83
2023/08/17 05:26:05;;;;;;;5.90;4.30;;;;;;;23.69;100.00;100606.79;179849;1255;44802;-83
2023/08/17 05:30:10;;;;;;;6.10;3.40;;;;;;;24.26;100.00;100612.48;179713;1255;58331;-83
2023/08/17 05:34:14;;;;;;;6.40;3.60;;;;;;;24.46;100.00;100615.92;179952;1256;46041;-83
2023/08/17 05:38:17;;;;;;;5.30;3.00;;;;;;;24.58;100.00;100615.20;179751;1255;43936;-83
2023/08/17 05:42:21;;;;;;;7.90;3.90;;;;;;;24.53;100.00;100607.73;179791;1255;44534;-83
2023/08/17 05:46:24;;;;;;;4.30;3.40;;;;;;;24.48;100.00;100607.06;179843;1255;45921;-83
2023/08/17 05:50:30;;;;;;;5.50;3.90;;;;;;;24.41;100.00;100605.02;180163;1255;58386;-83
2023/08/17 05:54:34;;;;;;;4.30;3.50;;;;;;;24.49;100.00;100607.64;179842;1255;44730;-83
2023/08/17 05:58:38;;;;;;;4.80;3.00;;;;;;;24.36;100.00;100617.52;180118;1255;46003;-83
2023/08/17 06:02:49;;;;;;;4.70;3.50;;;;;;;24.19;100.00;100616.94;180000;1256;45989;-83
2023/08/17 06:06:54;;;;;;;5.20;2.40;;;;;;;24.50;100.00;100611.95;180192;1255;45946;-83
2023/08/17 06:10:58;;;;;;;4.40;2.80;;;;;;;24.91;100.00;100604.58;180119;1255;59219;-83
2023/08/17 06:15:03;;;;;;;5.50;3.00;;;;;;;25.27;100.00;100602.70;179885;1255;45988;-83
2023/08/17 06:19:23;;;;;;;4.30;2.70;;;;;;;25.69;100.00;100608.89;180656;1256;86688;-61
2023/08/17 06:23:27;;;;;;;4.30;3.20;;;;;;;25.87;100.00;100611.25;178569;1258;46094;-89
2023/08/17 06:31:57;;;;;;;6.60;3.80;;;;;;;25.45;100.00;100603.47;176991;1258;86405;-83
2023/08/17 06:36:00;;;;;;;5.30;1.80;;;;;;;25.60;100.00;100609.28;179643;1260;44696;-83
2023/08/17 06:40:09;;;;;;;3.00;2.70;;;;;;;25.86;100.00;100610.58;179561;1258;46154;-83
2023/08/17 06:44:12;;;;;;;4.20;3.10;;;;;;;25.99;99.52;100613.36;179630;1259;46143;-84
2023/08/17 06:48:16;;;;;;;17.30;3.80;;;;;;;25.81;99.74;100614.60;180506;1259;44532;-84
2023/08/17 06:52:20;;;;;;;5.20;2.70;;;;;;;25.57;98.97;100617.27;180200;1258;58077;-84
2023/08/17 06:56:24;;;;;;;3.40;3.10;;;;;;;25.44;99.31;100613.77;179633;1258;46112;-84
2023/08/17 07:00:28;;;;;;;3.30;2.60;;;;;;;25.50;100.00;100619.17;179437;1259;46020;-84
2023/08/17 07:04:31;;;;;;;3.20;2.40;;;;;;;25.57;99.77;100621.53;179630;1261;44517;-84
2023/08/17 07:08:36;;;;;;;5.10;3.10;;;;;;;25.62;99.80;100620.55;179313;1258;45898;-84
2023/08/17 07:12:40;;;;;;;6.10;3.00;;;;;;;25.79;100.00;100625.69;179543;1259;58433;-84
2023/08/17 07:16:43;;;;;;;3.70;2.90;;;;;;;25.95;98.56;100622.67;179706;1258;44607;-85
2023/08/17 07:20:49;;;;;;;6.30;3.00;;;;;;;26.04;95.24;100623.94;179403;1258;46086;-84
2023/08/17 07:24:52;;;;;;;4.10;3.00;;;;;;;26.05;95.84;100622.15;179519;1258;45962;-85
2023/08/17 07:28:56;;;;;;;3.60;3.10;;;;;;;26.27;97.32;100621.10;179471;1258;45067;-84
2023/08/17 07:33:00;;;;;;;6.90;2.80;;;;;;;26.44;95.37;100621.38;179248;1259;58313;-85
2023/08/17 07:37:05;;;;;;;9.10;3.60;;;;;;;26.48;94.54;100619.66;179334;1258;46341;-84
2023/08/17 07:41:10;;;;;;;2.60;2.10;;;;;;;26.50;95.14;100617.45;179408;1258;46074;-85
2023/08/17 07:45:14;;;;;;;3.80;2.60;;;;;;;26.57;94.41;100613.50;179314;1258;46013;-85
2023/08/17 07:49:17;;;;;;;5.30;3.20;;;;;;;26.63;95.10;100605.29;179967;1258;44024;-85
2023/08/17 07:53:41;;;;;;;4.40;3.20;;;;;;;26.56;93.83;100607.16;180167;1256;59293;-85
2023/08/17 07:57:45;;;;;;;5.70;3.50;;;;;;;26.27;95.82;100611.69;179436;1258;46064;-85
2023/08/17 08:01:49;;;;;;;5.10;2.60;;;;;;;26.15;98.33;100608.71;179653;1258;43992;-85
2023/08/17 08:05:53;;;;;;;3.20;2.90;;;;;;;26.03;98.22;100607.33;180297;1259;43789;-85
2023/08/17 08:09:57;;;;;;;3.90;3.00;;;;;;;25.88;97.12;100605.67;179861;1259;46011;-85
2023/08/17 08:14:01;;;;;;;5.50;3.00;;;;;;;25.69;97.76;100610.91;179454;1259;59755;-85
2023/08/17 08:18:05;;;;;;;8.20;3.40;;;;;;;25.50;98.81;100615.10;179392;1259;45237;-85
2023/08/17 08:22:08;;;;;;;5.50;3.50;;;;;;;25.41;100.00;100614.08;179938;1258;45870;-85
2023/08/17 08:26:12;;;;;;;4.90;2.80;;;;;;;25.60;100.00;100615.35;179738;1258;46034;-85
2023/08/17 08:30:18;;;;;;;8.40;4.00;;;;;;;26.00;100.00;100613.34;179198;1262;44714;-85
2023/08/17 08:34:22;;;;;;;6.00;3.70;;;;;;;26.21;99.29;100612.07;179339;1258;59609;-85
2023/08/17 08:38:25;;;;;;;6.30;3.30;;;;;;;26.43;97.25;100612.20;179524;1259;46006;-85
2023/08/17 08:42:31;;;;;;;4.00;3.50;;;;;;;26.70;93.93;100612.15;179252;1258;46131;-85
2023/08/17 08:46:40;;;;;;;;;;;;;;;26.78;93.27;100608.25;179497;1259;46413;-85
2023/08/17 08:50:50;;;;;;;3.80;3.20;;;;;;;26.86;93.21;100607.59;180027;1258;43728;-85
2023/08/17 08:54:58;;;;;;;3.20;2.80;;;;;;;27.01;92.67;100602.20;179266;1258;59152;-85
2023/08/17 08:59:04;;;;;;;3.80;3.30;;;;;;;27.16;90.53;100598.19;179816;1259;45974;-85
2023/08/17 09:03:09;;;;;;;5.10;2.80;;;;;;;27.09;86.50;100592.98;179529;1258;46170;-85
2023/08/17 09:07:18;;;;;;;3.50;3.30;;;;;;;26.98;86.96;100596.05;179652;1258;44350;-85
2023/08/17 09:11:23;;;;;;;3.90;3.00;;;;;;;26.91;90.01;100592.48;179815;1256;46027;-84
2023/08/17 09:29:38;;;;;;;7.30;3.20;;;;;;;27.61;86.77;100589.63;175583;1285;579361;-88
2023/08/17 09:33:41;;;;;;;3.50;3.20;;;;;;;27.77;85.50;100593.99;177334;1267;259738;-89
2023/08/17 09:37:47;;;;;;;3.50;2.80;;;;;;;27.72;84.86;100590.63;178167;1257;46130;-88
2023/08/17 09:41:51;;;;;;;4.00;3.60;;;;;;;27.62;85.82;100581.95;178166;1257;46092;-88
2023/08/17 09:45:55;;;;;;;3.90;3.50;;;;;;;27.57;85.64;100582.27;178456;1257;46066;-88
2023/08/17 09:49:58;;;;;;;4.10;3.70;;;;;;;27.57;87.51;100584.88;177830;1260;46089;-88
2023/08/17 09:54:01;;;;;;;4.60;3.20;;;;;;;27.57;86.43;100582.48;178546;1257;58217;-89
2023/08/17 09:58:08;;;;;;;3.80;2.80;;;;;;;27.84;87.12;100580.35;178728;1257;46019;-89
2023/08/17 10:02:23;;;;;;;5.60;3.90;;;;;;;28.00;86.54;100575.85;179173;1257;45926;-89
2023/08/17 10:06:30;;;;;;;4.70;3.10;;;;;;;28.23;87.72;100571.08;178854;1262;44148;-89
2023/08/17 10:10:38;;;;;;;4.50;2.90;;;;;;;28.30;84.58;100567.72;178656;1260;44293;-89
2023/08/17 10:14:56;;;;;;;4.10;3.70;;;;;;;28.30;86.47;100571.65;178785;1257;57953;-90
2023/08/17 10:19:10;;;;;;;4.30;3.80;;;;;;;28.32;84.96;100568.08;178548;1260;45264;-89
2023/08/17 10:23:20;;;;;;;4.70;3.50;;;;;;;28.32;83.92;100559.56;178709;1257;46372;-90
2023/08/17 10:27:25;;;;;;;4.60;3.10;;;;;;;28.40;86.70;100555.14;178401;1257;46998;-89
2023/08/17 10:31:34;;;;;;;5.60;3.10;;;;;;;28.33;87.40;100551.77;178619;1260;45977;-89
2023/08/17 10:35:40;;;;;;;6.90;4.40;;;;;;;28.32;88.63;100553.15;178359;1257;58185;-90
2023/08/17 10:39:48;;;;;;;4.60;4.00;;;;;;;28.22;88.75;100542.95;178731;1257;45118;-90
2023/08/17 10:44:00;;;;;;;4.80;3.20;;;;;;;28.30;87.39;100543.90;178829;1261;46197;-90
2023/08/17 10:48:08;;;;;;;4.90;3.10;;;;;;;28.38;86.55;100540.14;178376;1257;45996;-90
2023/08/17 10:52:12;;;;;;;3.20;2.90;;;;;;;28.48;83.08;100535.08;178996;1253;44426;-89
2023/08/17 10:56:16;;;;;;;4.70;3.10;;;;;;;28.55;81.08;100526.95;179042;1257;57928;-89
2023/08/17 11:00:26;;;;;;;2.60;2.40;;;;;;;28.60;76.17;100529.85;179036;1254;45984;-90
2023/08/17 11:04:32;;;;;;;2.30;1.80;;;;;;;28.61;72.81;100525.88;179420;1254;46096;-89
2023/08/17 11:08:55;;;;;;;3.80;3.10;;;;;;;28.56;73.68;100521.63;179356;1256;46093;-89
2023/08/17 11:12:59;;;;;;;2.50;2.20;;;;;;;28.66;74.85;100518.98;179468;1253;46033;-89
2023/08/17 11:17:03;;;;;;;3.60;2.80;;;;;;;28.76;79.22;100518.59;178968;1254;58790;-88
2023/08/17 11:21:10;;;;;;;4.10;3.60;;;;;;;28.85;80.84;100515.36;179266;1254;45951;-88
2023/08/17 11:25:15;;;;;;;3.70;3.30;;;;;;;28.96;75.66;100512.61;180133;1253;46128;-89
2023/08/17 11:29:19;;;;;;;2.70;2.50;;;;;;;29.05;75.47;100512.41;179264;1254;46431;-89
2023/08/17 11:33:22;;;;;;;2.50;2.20;;;;;;;29.19;78.33;100508.11;179521;1254;46027;-89
2023/08/17 11:37:26;;;;;;;3.50;2.60;;;;;;;29.22;75.59;100505.83;179024;1253;58254;-89
2023/08/17 11:41:29;;;;;;;3.40;2.30;;;;;;;29.19;75.22;100506.92;179262;1258;44529;-89
2023/08/17 11:45:33;;;;;;;3.70;3.30;;;;;;;29.25;75.78;100504.17;179336;1254;46383;-89
2023/08/17 11:49:37;;;;;;;4.80;4.40;;;;;;;29.33;76.25;100504.87;179069;1253;46052;-90
2023/08/17 11:53:41;;;;;;;4.80;3.50;;;;;;;29.33;75.91;100507.77;179388;1254;44611;-89
2023/08/17 11:57:52;;;;;;;3.00;2.70;;;;;;;29.34;75.31;100505.98;179693;1254;57157;-89
2023/08/17 12:01:57;;;;;;;5.20;4.70;;;;;;;29.49;74.83;100504.52;179498;1253;46092;-89
2023/08/17 12:06:00;;;;;;;4.40;3.60;;;;;;;29.64;77.09;100501.42;179339;1253;45888;-89
2023/08/17 12:10:04;;;;;;;3.90;3.30;;;;;;;29.72;76.80;100500.96;179274;1256;44752;-89
2023/08/17 12:14:10;;;;;;;3.40;3.10;;;;;;;29.77;76.79;100500.91;179184;1258;46041;-90
2023/08/17 12:18:16;;;;;;;4.30;3.90;;;;;;;29.77;76.43;100498.75;179267;1254;58092;-90
2023/08/17 12:22:28;;;;;;;3.20;2.90;;;;;;;29.90;76.21;100494.60;179313;1253;46083;-90
2023/08/17 12:26:34;;;;;;;4.20;3.50;;;;;;;29.91;75.88;100496.83;179168;1254;46098;-90
2023/08/17 12:30:38;;;;;;;4.20;3.90;;;;;;;29.99;74.07;100492.23;179632;1254;46044;-89
2023/08/17 12:34:42;;;;;;;5.10;3.80;;;;;;;30.07;74.94;100486.84;179541;1254;45986;-90
2023/08/17 12:38:47;;;;;;;4.20;3.90;;;;;;;30.11;74.71;100482.72;179205;1254;58108;-90
2023/08/17 12:42:52;;;;;;;6.10;3.50;;;;;;;30.10;74.24;100478.05;179395;1253;49174;-89
2023/08/17 12:46:55;;;;;;;4.20;3.60;;;;;;;30.17;74.31;100474.80;179503;1254;45976;-90
2023/08/17 12:50:58;;;;;;;4.50;4.00;;;;;;;30.20;73.37;100469.68;179548;1254;46165;-90
2023/08/17 12:55:04;;;;;;;5.60;4.40;;;;;;;30.21;73.46;100462.30;179434;1254;45997;-89
2023/08/17 12:59:09;;;;;;;5.90;4.20;;;;;;;30.25;73.01;100454.06;179222;1254;59345;-90
2023/08/17 13:03:12;;;;;;;4.80;4.10;;;;;;;30.38;74.10;100445.67;179285;1254;45929;-90
2023/08/17 13:07:18;;;;;;;6.30;5.00;;;;;;;30.46;73.15;100431.77;179660;1254;46230;-90
2023/08/17 13:11:21;;;;;;;5.00;4.60;;;;;;;30.42;72.76;100429.52;179721;1254;46038;-90
2023/08/17 13:15:25;;;;;;;5.00;4.50;;;;;;;30.43;72.82;100424.30;179397;1254;44870;-90
2023/08/17 13:19:29;;;;;;;6.50;5.50;;;;;;;30.55;73.46;100412.95;179366;1256;58184;-89
2023/08/17 13:23:32;;;;;;;6.20;4.00;;;;;;;30.60;71.91;100402.59;179144;1254;46143;-90
2023/08/17 13:27:36;;;;;;;6.60;4.60;;;;;;;30.71;74.22;100399.86;179608;1259;45869;-90
2023/08/17 13:31:39;;;;;;;8.90;5.10;;;;;;;30.81;73.23;100405.52;179287;1256;44231;-89
2023/08/17 13:35:43;;;;;;;5.00;4.50;;;;;;;30.87;72.41;100410.89;180081;1259;45472;-90
2023/08/17 13:39:46;;;;;;;7.10;5.10;;;;;;;30.91;72.11;100417.27;179845;1258;58001;-90
2023/08/17 13:43:50;;;;;;;6.10;4.50;;;;;;;30.94;71.70;100425.14;180077;1258;45810;-91
2023/08/17 13:47:55;;;;;;;5.90;5.30;;;;;;;30.88;71.41;100427.11;180733;1254;45785;-90
2023/08/17 13:52:02;;;;;;;5.90;4.40;;;;;;;30.88;71.13;100430.30;180260;1254;44854;-90
2023/08/17 13:56:05;;;;;;;6.60;4.10;;;;;;;30.94;72.97;100422.67;179914;1253;46003;-91
2023/08/17 14:00:10;;;;;;;8.70;4.90;;;;;;;30.99;71.48;100427.44;180235;1254;60244;-90
2023/08/17 14:04:17;;;;;;;5.50;4.80;;;;;;;30.97;71.88;100428.58;180247;1256;44053;-88
2023/08/17 14:08:32;;;;;;;6.90;5.80;;;;;;;30.94;71.11;100423.98;180115;1253;46106;-90
2023/08/17 14:12:36;;;;;;;8.00;4.90;;;;;;;30.96;71.17;100416.87;180493;1253;46507;-89
2023/08/17 14:16:42;;;;;;;5.70;4.70;;;;;;;30.97;72.19;100416.98;180172;1258;45619;-90
2023/08/17 14:20:46;;;;;;;6.50;5.10;;;;;;;31.02;71.50;100415.11;180039;1254;60727;-89
2023/08/17 14:24:50;;;;;;;4.60;4.20;;;;;;;31.09;72.57;100417.87;180106;1257;45984;-89
2023/08/17 14:28:53;;;;;;;5.80;5.30;;;;;;;31.12;72.12;100421.74;180941;1254;47336;-88
2023/08/17 14:32:57;;;;;;;6.50;5.90;;;;;;;31.04;71.15;100423.05;180657;1254;46041;-89
2023/08/17 14:37:05;;;;;;;4.90;4.10;;;;;;;31.01;72.57;100414.27;179873;1254;46002;-88
2023/08/17 14:41:09;;;;;;;16.60;5.00;;;;;;;31.04;73.28;100411.05;179563;1254;60579;-89
2023/08/17 14:45:12;;;;;;;7.10;6.50;;;;;;;31.12;73.19;100413.61;179424;1254;44669;-89
2023/08/17 14:49:16;;;;;;;10.30;6.70;;;;;;;31.12;72.22;100421.86;179176;1254;45981;-88
2023/08/17 14:53:19;;;;;;;5.20;4.70;;;;;;;31.08;72.03;100429.23;179686;1254;44539;-88
2023/08/17 14:57:23;;;;;;;7.10;5.80;;;;;;;31.03;71.77;100435.50;179883;1259;45988;-89
2023/08/17 15:01:28;;;;;;;5.00;4.60;;;;;;;30.97;71.83;100438.73;180158;1259;58230;-88
2023/08/17 15:05:35;;;;;;;7.20;5.10;;;;;;;30.99;72.80;100436.77;179072;1257;46130;-89
2023/08/17 15:09:41;;;;;;;6.20;5.20;;;;;;;31.01;72.28;100430.92;179213;1254;46175;-89
2023/08/17 15:13:44;;;;;;;4.70;4.30;;;;;;;30.99;71.61;100423.83;179180;1259;45957;-89
2023/08/17 15:17:48;;;;;;;5.40;4.90;;;;;;;30.93;71.78;100427.10;179029;1257;46096;-89
2023/08/17 15:21:51;;;;;;;5.80;4.90;;;;;;;30.81;71.61;100416.56;178992;1254;57676;-89
2023/08/17 15:25:54;;;;;;;5.00;4.00;;;;;;;30.62;72.09;100416.50;178913;1259;44720;-88
2023/08/17 15:29:58;;;;;;;6.70;4.90;;;;;;;30.43;72.69;100412.69;178803;1257;45891;-88
2023/08/17 15:34:01;;;;;;;5.70;4.80;;;;;;;30.35;73.66;100407.05;178929;1259;45989;-88
2023/08/17 15:38:05;;;;;;;5.90;4.40;;;;;;;30.25;74.48;100409.91;178883;1254;46112;-88
2023/08/17 15:42:08;;;;;;;10.60;6.00;;;;;;;30.10;75.04;100422.21;179337;1259;60449;-89
2023/08/17 15:46:12;;;;;;;7.30;6.60;;;;;;;29.95;76.06;100426.03;178765;1254;45980;-88
2023/08/17 15:50:15;;;;;;;8.00;5.80;;;;;;;29.77;76.33;100427.70;178913;1254;46098;-89
2023/08/17 15:54:19;;;;;;;4.00;2.60;;;;;;;29.05;72.51;100451.04;178888;1254;44977;-89
2023/08/17 15:58:37;;;;;;;6.50;1.90;;;;;;;27.98;68.24;100458.27;178475;1254;45894;-89
2023/08/17 16:02:40;;;;;;;6.30;2.50;;;;;;;27.40;69.99;100468.06;178531;1260;59559;-89
2023/08/17 16:06:43;;;;;;;3.60;1.90;;;;;;;27.01;72.51;100454.08;178385;1254;46094;-89
2023/08/17 16:10:46;;;;;;;6.40;2.10;;;;;;;26.66;73.21;100437.67;178253;1254;46025;-88
2023/08/17 16:14:51;;;;;;;;;;;;;;;26.41;75.82;100431.23;178099;1254;44364;-88
2023/08/17 16:18:55;;;;;;;2.80;2.30;;;;;;;26.27;75.67;100430.70;178153;1260;45974;-88
2023/08/17 16:22:58;;;;;;;4.80;2.10;;;;;;;26.12;76.62;100437.02;178385;1254;59411;-88
2023/08/17 16:27:01;;;;;;;2.80;1.90;;;;;;;25.94;78.39;100445.60;178213;1254;46022;-88
2023/08/17 16:31:04;;;;;;;3.00;1.80;;;;;;;25.72;80.03;100459.23;178086;1258;46050;-88
2023/08/17 16:35:08;;;;;;;2.60;2.40;;;;;;;25.67;80.59;100457.05;178024;1254;46182;-88
2023/08/17 16:39:12;;;;;;;4.10;2.90;;;;;;;25.61;81.63;100459.31;178234;1257;46149;-88
2023/08/17 16:43:18;;;;;;;2.40;2.20;;;;;;;25.47;81.89;100445.62;178301;1254;59748;-89
2023/08/17 16:47:25;;;;;;;2.80;2.30;;;;;;;25.36;83.83;100447.23;178471;1254;46144;-88
2023/08/17 16:51:30;;;;;;;3.30;3.00;;;;;;;25.31;85.16;100448.69;179094;1257;45948;-88
2023/08/17 16:55:39;;;;;;;4.60;2.40;;;;;;;25.27;87.44;100447.04;178349;1258;46076;-88
2023/08/17 16:59:43;;;;;;;4.60;3.30;;;;;;;25.24;87.50;100448.14;180998;1254;44766;-87
2023/08/17 17:03:47;;;;;;;14.30;5.10;;;;;;;25.28;87.59;100444.48;178486;1255;58686;-89
2023/08/17 17:07:52;;;;;;;4.40;3.10;;;;;;;25.37;87.46;100439.80;178094;1258;46079;-89
2023/08/17 17:11:57;;;;;;;6.60;2.90;;;;;;;25.47;85.72;100443.48;178026;1259;46049;-88
2023/08/17 17:16:01;;;;;;;2.70;2.10;;;;;;;25.56;85.31;100448.42;177985;1257;45934;-89
2023/08/17 17:20:05;;;;;;;3.80;2.80;;;;;;;25.60;84.93;100450.30;178136;1254;46127;-89
2023/08/17 17:24:10;;;;;;;3.00;2.50;;;;;;;25.62;85.40;100445.89;178004;1254;60496;-89
2023/08/17 17:28:15;;;;;;;3.30;2.60;;;;;;;25.60;85.58;100448.55;177953;1254;46019;-89
2023/08/17 17:32:18;;;;;;;2.70;2.20;;;;;;;25.58;85.58;100454.81;177993;1254;46092;-89
2023/08/17 17:36:22;;;;;;;6.80;2.80;;;;;;;25.55;86.38;100461.04;178417;1254;46056;-87
2023/08/17 17:40:25;;;;;;;4.00;2.80;;;;;;;25.49;88.66;100461.16;179040;1257;44833;-89
2023/08/17 17:44:28;;;;;;;11.00;5.30;;;;;;;25.40;89.80;100452.02;178202;1254;58631;-90
2023/08/17 17:48:32;;;;;;;2.90;2.70;;;;;;;25.28;94.82;100447.16;178870;1254;44159;-89
2023/08/17 17:52:37;;;;;;;4.50;3.40;;;;;;;25.20;96.05;100436.16;179465;1254;46011;-90
2023/08/17 17:56:44;;;;;;;6.20;3.40;;;;;;;25.13;96.59;100436.29;179391;1254;46085;-89
2023/08/17 18:00:47;;;;;;;5.20;3.10;;;;;;;25.03;95.03;100435.92;179340;1254;46121;-89
2023/08/17 18:04:54;;;;;;;3.90;3.20;;;;;;;24.94;93.06;100434.15;180165;1256;58502;-90
2023/08/17 18:08:58;;;;;;;5.70;3.00;;;;;;;24.82;93.17;100430.70;179575;1254;45937;-90
2023/08/17 18:13:02;;;;;;;3.80;3.20;;;;;;;24.71;93.59;100430.95;179741;1254;45910;-89
2023/08/17 18:17:06;;;;;;;4.10;2.80;;;;;;;24.61;94.15;100430.62;179672;1259;45972;-90
2023/08/17 18:21:10;;;;;;;3.70;3.00;;;;;;;24.54;94.56;100435.61;179672;1254;45973;-89
2023/08/17 18:25:15;;;;;;;4.80;4.00;;;;;;;24.48;94.80;100431.39;179879;1258;58632;-86
2023/08/17 18:29:18;;;;;;;6.30;3.80;;;;;;;24.43;94.90;100432.61;180009;1257;45992;-86
2023/08/17 18:33:25;;;;;;;3.80;2.70;;;;;;;24.37;96.36;100434.67;179241;1257;45953;-87
2023/08/17 18:37:29;;;;;;;3.40;2.70;;;;;;;24.31;96.53;100442.02;180484;1256;46066;-86
2023/08/17 18:41:33;;;;;;;5.80;4.10;;;;;;;24.22;96.63;100446.05;180943;1257;45485;-87
2023/08/17 18:45:36;;;;;;;4.60;3.60;;;;;;;24.14;96.55;100451.75;179530;1257;59168;-87
2023/08/17 18:49:40;;;;;;;6.90;3.10;;;;;;;24.07;96.70;100450.94;179846;1256;46030;-87
2023/08/17 18:53:44;;;;;;;5.10;3.00;;;;;;;24.01;97.24;100445.41;181092;1256;43867;-86
2023/08/17 18:57:49;;;;;;;7.10;2.80;;;;;;;23.97;97.92;100453.38;180509;1257;44675;-87
2023/08/17 19:01:53;;;;;;;6.00;3.90;;;;;;;23.92;98.01;100462.38;181060;1257;43746;-86